sensor_id;sensor_type;location;lat;lon;timestamp;pressure;altitude;pressure_sealevel;temperature;humidity
12991;BME280;6560;57.692;11.958;2023-03-22T00:01:26;100110.31;;;17.50;100.00
12991;BME280;6560;57.692;11.958;2023-03-22T00:03:55;100120.78;;;17.68;100.00
12991;BME280;6560;57.692;11.958;2023-03-22T00:06:21;100065.19;;;17.31;100.00
12991;BME280;6560;57.692;11.958;2023-03-22T00:08:51;100108.94;;;17.37;100.00
12991;BME280;6560;57.692;11.958;2023-03-22T00:11:17;100061.16;;;17.42;100.00
12991;BME280;6560;57.692;11.958;2023-03-22T00:13:43;100076.31;;;17.21;100.00
12991;BME280;6560;57.692;11.958;2023-03-22T00:16:14;100105.22;;;17.56;100.00
12991;BME280;6560;57.692;11.958;2023-03-22T00:18:40;100103.19;;;17.27;100.00
12991;BME280;6560;57.692;11.958;2023-03-22T00:21:09;100078.78;;;17.38;100.00
12991;BME280;6560;57.692;11.958;2023-03-22T00:23:36;100096.31;;;17.56;100.00
12991;BME280;6560;57.692;11.958;2023-03-22T00:26:02;100080.06;;;17.72;100.00
12991;BME280;6560;57.692;11.958;2023-03-22T00:28:27;100071.41;;;18.29;100.00
12991;BME280;6560;57.692;11.958;2023-03-22T00:30:56;100079.72;;;18.13;100.00
12991;BME280;6560;57.692;11.958;2023-03-22T00:33:22;100038.53;;;18.30;100.00
12991;BME280;6560;57.692;11.958;2023-03-22T00:35:56;100063.28;;;18.26;100.00
12991;BME280;6560;57.692;11.958;2023-03-22T00:38:22;100035.97;;;17.58;100.00
12991;BME280;6560;57.692;11.958;2023-03-22T00:40:47;100063.31;;;18.01;100.00
12991;BME280;6560;57.692;11.958;2023-03-22T00:43:13;100039.81;;;17.66;100.00
12991;BME280;6560;57.692;11.958;2023-03-22T00:45:39;100063.47;;;17.57;100.00
12991;BME280;6560;57.692;11.958;2023-03-22T00:48:09;100050.19;;;18.34;100.00
12991;BME280;6560;57.692;11.958;2023-03-22T00:50:35;100075.03;;;17.81;100.00
12991;BME280;6560;57.692;11.958;2023-03-22T00:53:01;100039.31;;;17.76;100.00
12991;BME280;6560;57.692;11.958;2023-03-22T00:55:26;100054.94;;;17.65;100.00
12991;BME280;6560;57.692;11.958;2023-03-22T00:57:52;100030.75;;;16.89;100.00
12991;BME280;6560;57.692;11.958;2023-03-22T01:00:18;100030.38;;;17.26;100.00
12991;BME280;6560;57.692;11.958;2023-03-22T01:02:43;100057.09;;;17.53;100.00
12991;BME280;6560;57.692;11.958;2023-03-22T01:05:09;100048.72;;;17.42;100.00
12991;BME280;6560;57.692;11.958;2023-03-22T01:07:43;100040.03;;;17.48;100.00
12991;BME280;6560;57.692;11.958;2023-03-22T01:10:10;100001.50;;;16.91;100.00
12991;BME280;6560;57.692;11.958;2023-03-22T01:12:36;100054.47;;;17.29;100.00
12991;BME280;6560;57.692;11.958;2023-03-22T01:15:03;100025.22;;;18.32;100.00
12991;BME280;6560;57.692;11.958;2023-03-22T01:17:28;100044.56;;;17.25;100.00
12991;BME280;6560;57.692;11.958;2023-03-22T01:19:54;100051.00;;;17.32;100.00
12991;BME280;6560;57.692;11.958;2023-03-22T01:22:19;100015.97;;;16.97;100.00
12991;BME280;6560;57.692;11.958;2023-03-22T01:24:45;100009.22;;;17.07;100.00
12991;BME280;6560;57.692;11.958;2023-03-22T01:27:12;100008.69;;;17.41;100.00
12991;BME280;6560;57.692;11.958;2023-03-22T01:29:38;100021.38;;;17.48;100.00
12991;BME280;6560;57.692;11.958;2023-03-22T01:32:03;100023.81;;;17.66;100.00
12991;BME280;6560;57.692;11.958;2023-03-22T01:34:29;100025.69;;;17.93;100.00
12991;BME280;6560;57.692;11.958;2023-03-22T01:36:55;100028.22;;;17.64;100.00
12991;BME280;6560;57.692;11.958;2023-03-22T01:39:20;99978.09;;;18.06;100.00
12991;BME280;6560;57.692;11.958;2023-03-22T01:41:46;100003.59;;;17.71;100.00
12991;BME280;6560;57.692;11.958;2023-03-22T01:44:21;100009.84;;;17.71;100.00
12991;BME280;6560;57.692;11.958;2023-03-22T01:46:48;100003.00;;;17.56;100.00
12991;BME280;6560;57.692;11.958;2023-03-22T01:49:30;99988.59;;;17.74;100.00
12991;BME280;6560;57.692;11.958;2023-03-22T01:52:00;99995.44;;;18.74;100.00
12991;BME280;6560;57.692;11.958;2023-03-22T01:57:01;99981.19;;;17.66;100.00
12991;BME280;6560;57.692;11.958;2023-03-22T01:59:28;99951.06;;;17.68;100.00
12991;BME280;6560;57.692;11.958;2023-03-22T02:01:54;99965.16;;;17.40;100.00
12991;BME280;6560;57.692;11.958;2023-03-22T02:04:21;99963.94;;;17.31;100.00
12991;BME280;6560;57.692;11.958;2023-03-22T02:06:59;99965.69;;;17.30;100.00
12991;BME280;6560;57.692;11.958;2023-03-22T02:09:26;99957.75;;;17.57;100.00
12991;BME280;6560;57.692;11.958;2023-03-22T02:15:01;99967.44;;;17.30;100.00
12991;BME280;6560;57.692;11.958;2023-03-22T02:39:31;99977.00;;;17.48;100.00
12991;BME280;6560;57.692;11.958;2023-03-22T02:42:07;99976.97;;;17.23;100.00
12991;BME280;6560;57.692;11.958;2023-03-22T02:44:47;99978.22;;;17.09;100.00
12991;BME280;6560;57.692;11.958;2023-03-22T02:47:31;99969.78;;;16.97;100.00
12991;BME280;6560;57.692;11.958;2023-03-22T02:50:23;99965.25;;;17.18;100.00
12991;BME280;6560;57.692;11.958;2023-03-22T02:52:55;99934.78;;;17.35;100.00
12991;BME280;6560;57.692;11.958;2023-03-22T02:58:24;99942.78;;;16.86;100.00
12991;BME280;6560;57.692;11.958;2023-03-22T03:00:54;99964.50;;;17.71;100.00
12991;BME280;6560;57.692;11.958;2023-03-22T03:03:22;99939.97;;;17.31;100.00
12991;BME280;6560;57.692;11.958;2023-03-22T03:05:54;99939.31;;;17.88;100.00
12991;BME280;6560;57.692;11.958;2023-03-22T03:08:22;99930.19;;;17.57;100.00
12991;BME280;6560;57.692;11.958;2023-03-22T03:10:50;99902.81;;;17.61;100.00
12991;BME280;6560;57.692;11.958;2023-03-22T03:13:17;99877.28;;;17.42;100.00
12991;BME280;6560;57.692;11.958;2023-03-22T03:15:47;99950.63;;;17.81;100.00
12991;BME280;6560;57.692;11.958;2023-03-22T03:24:01;99935.38;;;17.52;100.00
12991;BME280;6560;57.692;11.958;2023-03-22T03:29:02;99908.06;;;17.84;100.00
12991;BME280;6560;57.692;11.958;2023-03-22T03:34:18;99921.72;;;18.52;100.00
12991;BME280;6560;57.692;11.958;2023-03-22T03:37:07;99916.31;;;18.20;100.00
12991;BME280;6560;57.692;11.958;2023-03-22T03:39:38;99910.00;;;18.17;100.00
12991;BME280;6560;57.692;11.958;2023-03-22T03:42:05;99903.84;;;18.19;100.00
12991;BME280;6560;57.692;11.958;2023-03-22T03:44:37;99917.63;;;18.05;100.00
12991;BME280;6560;57.692;11.958;2023-03-22T03:47:04;99888.13;;;18.00;100.00
12991;BME280;6560;57.692;11.958;2023-03-22T03:49:32;99906.88;;;18.31;100.00
12991;BME280;6560;57.692;11.958;2023-03-22T03:51:58;99894.34;;;18.01;100.00
12991;BME280;6560;57.692;11.958;2023-03-22T03:54:24;99903.00;;;17.67;100.00
12991;BME280;6560;57.692;11.958;2023-03-22T03:56:50;99896.09;;;17.72;100.00
12991;BME280;6560;57.692;11.958;2023-03-22T03:59:17;99885.44;;;17.72;100.00
12991;BME280;6560;57.692;11.958;2023-03-22T04:01:44;99902.81;;;17.87;100.00
12991;BME280;6560;57.692;11.958;2023-03-22T04:04:16;99885.63;;;18.06;100.00
12991;BME280;6560;57.692;11.958;2023-03-22T04:06:42;99810.78;;;17.45;100.00
12991;BME280;6560;57.692;11.958;2023-03-22T04:09:08;99895.94;;;17.42;100.00
12991;BME280;6560;57.692;11.958;2023-03-22T04:11:33;99806.13;;;17.39;100.00
12991;BME280;6560;57.692;11.958;2023-03-22T04:13:59;99767.09;;;16.88;100.00
12991;BME280;6560;57.692;11.958;2023-03-22T04:16:25;99791.88;;;16.61;100.00
12991;BME280;6560;57.692;11.958;2023-03-22T04:18:50;99885.75;;;17.05;100.00
12991;BME280;6560;57.692;11.958;2023-03-22T04:21:16;99903.97;;;16.93;100.00
12991;BME280;6560;57.692;11.958;2023-03-22T04:23:41;99841.47;;;17.08;100.00
12991;BME280;6560;57.692;11.958;2023-03-22T04:26:10;99764.13;;;16.55;100.00
12991;BME280;6560;57.692;11.958;2023-03-22T04:28:36;99849.47;;;17.08;100.00
12991;BME280;6560;57.692;11.958;2023-03-22T04:31:02;99870.38;;;17.48;100.00
12991;BME280;6560;57.692;11.958;2023-03-22T04:33:28;99844.56;;;17.73;100.00
12991;BME280;6560;57.692;11.958;2023-03-22T04:35:56;99863.84;;;17.64;100.00
12991;BME280;6560;57.692;11.958;2023-03-22T04:38:22;99850.94;;;18.64;100.00
12991;BME280;6560;57.692;11.958;2023-03-22T04:40:49;99852.28;;;17.64;100.00
12991;BME280;6560;57.692;11.958;2023-03-22T04:43:15;99852.88;;;17.82;100.00
12991;BME280;6560;57.692;11.958;2023-03-22T04:45:43;99846.09;;;17.65;100.00
12991;BME280;6560;57.692;11.958;2023-03-22T04:48:10;99861.84;;;17.84;100.00
12991;BME280;6560;57.692;11.958;2023-03-22T04:50:37;99847.66;;;17.85;100.00
12991;BME280;6560;57.692;11.958;2023-03-22T04:53:03;99850.25;;;17.83;100.00
12991;BME280;6560;57.692;11.958;2023-03-22T04:55:28;99856.97;;;17.72;100.00
12991;BME280;6560;57.692;11.958;2023-03-22T04:57:54;99858.41;;;17.61;100.00
12991;BME280;6560;57.692;11.958;2023-03-22T05:00:19;99861.31;;;17.69;100.00
12991;BME280;6560;57.692;11.958;2023-03-22T05:02:46;99867.03;;;17.81;100.00
12991;BME280;6560;57.692;11.958;2023-03-22T05:05:11;99839.66;;;17.86;100.00
12991;BME280;6560;57.692;11.958;2023-03-22T05:07:37;99809.34;;;17.56;100.00
12991;BME280;6560;57.692;11.958;2023-03-22T05:10:04;99851.59;;;17.98;100.00
12991;BME280;6560;57.692;11.958;2023-03-22T05:12:30;99842.75;;;18.88;100.00
12991;BME280;6560;57.692;11.958;2023-03-22T05:14:56;99861.63;;;18.06;100.00
12991;BME280;6560;57.692;11.958;2023-03-22T05:17:21;99858.03;;;18.04;100.00
12991;BME280;6560;57.692;11.958;2023-03-22T05:19:47;99844.31;;;18.52;100.00
12991;BME280;6560;57.692;11.958;2023-03-22T05:22:12;99850.19;;;17.82;100.00
12991;BME280;6560;57.692;11.958;2023-03-22T05:24:38;99832.97;;;17.71;100.00
12991;BME280;6560;57.692;11.958;2023-03-22T05:27:03;99836.22;;;17.89;100.00
12991;BME280;6560;57.692;11.958;2023-03-22T05:29:30;99798.56;;;17.78;100.00
12991;BME280;6560;57.692;11.958;2023-03-22T05:32:02;99830.34;;;18.01;100.00
12991;BME280;6560;57.692;11.958;2023-03-22T05:34:27;99797.78;;;17.56;100.00
12991;BME280;6560;57.692;11.958;2023-03-22T05:37:00;99824.53;;;17.85;100.00
12991;BME280;6560;57.692;11.958;2023-03-22T05:39:26;99821.84;;;17.84;100.00
12991;BME280;6560;57.692;11.958;2023-03-22T05:41:51;99814.16;;;17.95;100.00
12991;BME280;6560;57.692;11.958;2023-03-22T05:44:17;99797.78;;;18.11;100.00
12991;BME280;6560;57.692;11.958;2023-03-22T05:46:43;99788.06;;;18.14;100.00
12991;BME280;6560;57.692;11.958;2023-03-22T05:49:08;99805.41;;;18.28;100.00
12991;BME280;6560;57.692;11.958;2023-03-22T05:51:33;99816.31;;;17.78;100.00
12991;BME280;6560;57.692;11.958;2023-03-22T05:54:06;99796.66;;;16.70;100.00
12991;BME280;6560;57.692;11.958;2023-03-22T05:56:33;99777.41;;;16.53;100.00
12991;BME280;6560;57.692;11.958;2023-03-22T05:58:59;99795.97;;;17.54;100.00
12991;BME280;6560;57.692;11.958;2023-03-22T06:01:24;99798.63;;;17.54;100.00
12991;BME280;6560;57.692;11.958;2023-03-22T06:03:50;99790.56;;;17.25;100.00
12991;BME280;6560;57.692;11.958;2023-03-22T06:06:15;99790.69;;;17.56;100.00
12991;BME280;6560;57.692;11.958;2023-03-22T06:08:41;99784.66;;;17.35;100.00
12991;BME280;6560;57.692;11.958;2023-03-22T06:11:07;99758.47;;;17.48;100.00
12991;BME280;6560;57.692;11.958;2023-03-22T06:13:32;99778.28;;;17.57;100.00
12991;BME280;6560;57.692;11.958;2023-03-22T06:15:59;99789.91;;;17.59;100.00
12991;BME280;6560;57.692;11.958;2023-03-22T06:18:26;99752.75;;;17.36;100.00
12991;BME280;6560;57.692;11.958;2023-03-22T06:20:51;99767.75;;;17.34;100.00
12991;BME280;6560;57.692;11.958;2023-03-22T06:23:17;99760.94;;;17.42;100.00
12991;BME280;6560;57.692;11.958;2023-03-22T06:25:43;99764.69;;;18.06;100.00
12991;BME280;6560;57.692;11.958;2023-03-22T06:28:09;99770.03;;;17.76;100.00
12991;BME280;6560;57.692;11.958;2023-03-22T06:30:35;99773.41;;;17.43;100.00
12991;BME280;6560;57.692;11.958;2023-03-22T06:33:00;99770.00;;;18.04;100.00
12991;BME280;6560;57.692;11.958;2023-03-22T06:35:29;99770.63;;;17.40;100.00
12991;BME280;6560;57.692;11.958;2023-03-22T06:37:55;99768.50;;;18.14;100.00
12991;BME280;6560;57.692;11.958;2023-03-22T06:40:20;99755.97;;;17.54;100.00
12991;BME280;6560;57.692;11.958;2023-03-22T06:42:46;99748.94;;;17.57;100.00
12991;BME280;6560;57.692;11.958;2023-03-22T06:45:12;99739.09;;;17.54;100.00
12991;BME280;6560;57.692;11.958;2023-03-22T06:47:42;99763.06;;;17.54;100.00
12991;BME280;6560;57.692;11.958;2023-03-22T06:50:08;99741.81;;;17.56;100.00
12991;BME280;6560;57.692;11.958;2023-03-22T06:52:34;99737.59;;;17.62;100.00
12991;BME280;6560;57.692;11.958;2023-03-22T06:55:00;99769.34;;;17.83;100.00
12991;BME280;6560;57.692;11.958;2023-03-22T06:57:25;99758.97;;;17.64;100.00
12991;BME280;6560;57.692;11.958;2023-03-22T06:59:51;99754.34;;;17.86;100.00
12991;BME280;6560;57.692;11.958;2023-03-22T07:02:16;99753.72;;;17.95;100.00
12991;BME280;6560;57.692;11.958;2023-03-22T07:04:43;99726.31;;;18.30;100.00
12991;BME280;6560;57.692;11.958;2023-03-22T07:07:09;99736.25;;;18.06;100.00
12991;BME280;6560;57.692;11.958;2023-03-22T07:09:35;99759.09;;;17.97;100.00
12991;BME280;6560;57.692;11.958;2023-03-22T07:12:00;99719.50;;;18.10;100.00
12991;BME280;6560;57.692;11.958;2023-03-22T07:14:27;99742.78;;;18.16;100.00
12991;BME280;6560;57.692;11.958;2023-03-22T07:16:53;99755.59;;;18.29;100.00
12991;BME280;6560;57.692;11.958;2023-03-22T07:19:18;99732.66;;;18.04;100.00
12991;BME280;6560;57.692;11.958;2023-03-22T07:21:44;99754.69;;;18.28;100.00
12991;BME280;6560;57.692;11.958;2023-03-22T07:24:10;99673.25;;;17.78;100.00
12991;BME280;6560;57.692;11.958;2023-03-22T07:26:39;99672.63;;;17.60;100.00
12991;BME280;6560;57.692;11.958;2023-03-22T07:29:05;99731.81;;;18.07;100.00
12991;BME280;6560;57.692;11.958;2023-03-22T07:31:31;99704.50;;;17.84;100.00
12991;BME280;6560;57.692;11.958;2023-03-22T07:34:02;99569.50;;;17.26;100.00
12991;BME280;6560;57.692;11.958;2023-03-22T07:36:28;99638.75;;;17.84;100.00
12991;BME280;6560;57.692;11.958;2023-03-22T07:38:54;99599.44;;;17.77;100.00
12991;BME280;6560;57.692;11.958;2023-03-22T07:41:20;99716.78;;;18.40;100.00
12991;BME280;6560;57.692;11.958;2023-03-22T07:43:48;99646.09;;;17.93;100.00
12991;BME280;6560;57.692;11.958;2023-03-22T07:46:14;99700.81;;;18.10;100.00
12991;BME280;6560;57.692;11.958;2023-03-22T07:48:39;99708.16;;;18.17;100.00
12991;BME280;6560;57.692;11.958;2023-03-22T07:51:05;99688.09;;;18.33;100.00
12991;BME280;6560;57.692;11.958;2023-03-22T07:53:30;99723.84;;;18.69;100.00
12991;BME280;6560;57.692;11.958;2023-03-22T07:55:56;99656.19;;;18.69;100.00
12991;BME280;6560;57.692;11.958;2023-03-22T07:58:21;99715.91;;;19.82;100.00
12991;BME280;6560;57.692;11.958;2023-03-22T08:00:47;99719.88;;;19.24;100.00
12991;BME280;6560;57.692;11.958;2023-03-22T08:03:14;99723.72;;;19.37;100.00
12991;BME280;6560;57.692;11.958;2023-03-22T08:05:40;99628.81;;;18.45;100.00
12991;BME280;6560;57.692;11.958;2023-03-22T08:08:06;99670.38;;;19.02;100.00
12991;BME280;6560;57.692;11.958;2023-03-22T08:10:32;99590.94;;;18.25;100.00
12991;BME280;6560;57.692;11.958;2023-03-22T08:12:57;99675.38;;;18.89;100.00
12991;BME280;6560;57.692;11.958;2023-03-22T08:15:23;99705.81;;;18.95;100.00
12991;BME280;6560;57.692;11.958;2023-03-22T08:17:48;99668.13;;;18.85;100.00
12991;BME280;6560;57.692;11.958;2023-03-22T08:20:14;99691.06;;;19.47;100.00
12991;BME280;6560;57.692;11.958;2023-03-22T08:22:42;99648.56;;;19.22;100.00
12991;BME280;6560;57.692;11.958;2023-03-22T08:25:08;99672.56;;;19.20;100.00
12991;BME280;6560;57.692;11.958;2023-03-22T08:27:34;99712.69;;;19.22;100.00
12991;BME280;6560;57.692;11.958;2023-03-22T08:30:00;99709.25;;;19.27;100.00
12991;BME280;6560;57.692;11.958;2023-03-22T08:32:27;99614.06;;;18.57;100.00
12991;BME280;6560;57.692;11.958;2023-03-22T08:34:52;99667.78;;;18.71;100.00
12991;BME280;6560;57.692;11.958;2023-03-22T08:37:18;99699.88;;;19.07;100.00
12991;BME280;6560;57.692;11.958;2023-03-22T08:39:46;99697.09;;;19.02;100.00
12991;BME280;6560;57.692;11.958;2023-03-22T08:42:12;99700.38;;;18.92;100.00
12991;BME280;6560;57.692;11.958;2023-03-22T08:44:38;99679.66;;;18.82;100.00
12991;BME280;6560;57.692;11.958;2023-03-22T08:47:03;99684.06;;;18.80;100.00
12991;BME280;6560;57.692;11.958;2023-03-22T08:49:29;99691.44;;;18.90;100.00
12991;BME280;6560;57.692;11.958;2023-03-22T08:51:55;99683.75;;;19.04;100.00
12991;BME280;6560;57.692;11.958;2023-03-22T08:54:22;99683.25;;;18.50;100.00
12991;BME280;6560;57.692;11.958;2023-03-22T08:56:48;99672.13;;;18.66;100.00
12991;BME280;6560;57.692;11.958;2023-03-22T08:59:15;99663.41;;;18.73;100.00
12991;BME280;6560;57.692;11.958;2023-03-22T09:01:40;99695.38;;;18.39;100.00
12991;BME280;6560;57.692;11.958;2023-03-22T09:04:06;99632.88;;;18.29;100.00
12991;BME280;6560;57.692;11.958;2023-03-22T09:06:31;99635.44;;;18.57;100.00
12991;BME280;6560;57.692;11.958;2023-03-22T09:08:58;99627.25;;;18.53;100.00
12991;BME280;6560;57.692;11.958;2023-03-22T09:11:24;99668.34;;;18.58;100.00
12991;BME280;6560;57.692;11.958;2023-03-22T09:13:50;99672.41;;;18.44;100.00
12991;BME280;6560;57.692;11.958;2023-03-22T09:16:16;99658.47;;;18.22;100.00
12991;BME280;6560;57.692;11.958;2023-03-22T09:18:42;99662.34;;;18.66;100.00
12991;BME280;6560;57.692;11.958;2023-03-22T09:21:09;99662.69;;;18.47;100.00
12991;BME280;6560;57.692;11.958;2023-03-22T09:23:35;99637.13;;;18.22;100.00
12991;BME280;6560;57.692;11.958;2023-03-22T09:26:07;99658.91;;;18.06;100.00
12991;BME280;6560;57.692;11.958;2023-03-22T09:28:33;99612.13;;;17.56;100.00
12991;BME280;6560;57.692;11.958;2023-03-22T09:31:02;99621.50;;;18.03;100.00
12991;BME280;6560;57.692;11.958;2023-03-22T09:33:28;99649.41;;;18.16;100.00
12991;BME280;6560;57.692;11.958;2023-03-22T09:35:54;99642.03;;;18.07;100.00
12991;BME280;6560;57.692;11.958;2023-03-22T09:38:21;99631.50;;;18.12;100.00
12991;BME280;6560;57.692;11.958;2023-03-22T09:40:53;99646.69;;;17.83;100.00
12991;BME280;6560;57.692;11.958;2023-03-22T09:43:34;99620.16;;;18.20;100.00
12991;BME280;6560;57.692;11.958;2023-03-22T09:46:02;99639.97;;;18.28;100.00
12991;BME280;6560;57.692;11.958;2023-03-22T09:48:32;99614.88;;;18.22;100.00
12991;BME280;6560;57.692;11.958;2023-03-22T09:51:00;99641.25;;;17.78;100.00
12991;BME280;6560;57.692;11.958;2023-03-22T09:53:27;99588.69;;;17.44;100.00
12991;BME280;6560;57.692;11.958;2023-03-22T09:58:55;99620.31;;;17.93;100.00
12991;BME280;6560;57.692;11.958;2023-03-22T10:01:52;99618.53;;;18.58;100.00
12991;BME280;6560;57.692;11.958;2023-03-22T10:07:28;99578.75;;;17.39;100.00
12991;BME280;6560;57.692;11.958;2023-03-22T10:12:30;99619.84;;;18.08;100.00
12991;BME280;6560;57.692;11.958;2023-03-22T10:15:07;99583.53;;;18.13;100.00
12991;BME280;6560;57.692;11.958;2023-03-22T10:17:34;99595.66;;;18.35;100.00
12991;BME280;6560;57.692;11.958;2023-03-22T10:20:04;99620.97;;;18.85;100.00
12991;BME280;6560;57.692;11.958;2023-03-22T10:22:35;99594.84;;;18.38;100.00
12991;BME280;6560;57.692;11.958;2023-03-22T10:25:04;99612.09;;;18.52;100.00
12991;BME280;6560;57.692;11.958;2023-03-22T10:27:30;99521.00;;;18.37;100.00
12991;BME280;6560;57.692;11.958;2023-03-22T10:30:23;99601.38;;;19.24;100.00
12991;BME280;6560;57.692;11.958;2023-03-22T10:32:55;99599.28;;;19.10;100.00
12991;BME280;6560;57.692;11.958;2023-03-22T10:35:24;99576.72;;;19.37;100.00
12991;BME280;6560;57.692;11.958;2023-03-22T10:37:50;99594.81;;;19.47;100.00
12991;BME280;6560;57.692;11.958;2023-03-22T10:40:24;99591.31;;;19.12;100.00
12991;BME280;6560;57.692;11.958;2023-03-22T10:42:58;99591.66;;;19.66;100.00
12991;BME280;6560;57.692;11.958;2023-03-22T10:45:25;99556.00;;;19.67;100.00
12991;BME280;6560;57.692;11.958;2023-03-22T10:48:02;99561.13;;;18.76;100.00
12991;BME280;6560;57.692;11.958;2023-03-22T10:50:38;99567.34;;;18.76;100.00
12991;BME280;6560;57.692;11.958;2023-03-22T10:53:11;99532.56;;;18.73;100.00
12991;BME280;6560;57.692;11.958;2023-03-22T10:55:42;99575.50;;;18.82;100.00
12991;BME280;6560;57.692;11.958;2023-03-22T10:58:16;99522.41;;;18.97;100.00
12991;BME280;6560;57.692;11.958;2023-03-22T11:00:52;99574.75;;;18.88;100.00
12991;BME280;6560;57.692;11.958;2023-03-22T11:03:30;99573.00;;;19.29;100.00
12991;BME280;6560;57.692;11.958;2023-03-22T11:06:05;99541.19;;;19.00;100.00
12991;BME280;6560;57.692;11.958;2023-03-22T11:08:57;99563.06;;;19.64;100.00
12991;BME280;6560;57.692;11.958;2023-03-22T11:11:38;99555.66;;;19.49;100.00
12991;BME280;6560;57.692;11.958;2023-03-22T11:16:58;99582.81;;;20.17;100.00
12991;BME280;6560;57.692;11.958;2023-03-22T11:19:30;99528.59;;;19.35;100.00
12991;BME280;6560;57.692;11.958;2023-03-22T11:21:57;99502.31;;;18.74;100.00
12991;BME280;6560;57.692;11.958;2023-03-22T11:24:25;99481.34;;;18.16;100.00
12991;BME280;6560;57.692;11.958;2023-03-22T11:27:24;99549.75;;;18.86;100.00
12991;BME280;6560;57.692;11.958;2023-03-22T11:29:57;99534.91;;;18.97;100.00
12991;BME280;6560;57.692;11.958;2023-03-22T11:32:28;99523.09;;;19.28;100.00
12991;BME280;6560;57.692;11.958;2023-03-22T11:37:50;99541.38;;;19.50;100.00
12991;BME280;6560;57.692;11.958;2023-03-22T11:40:24;99543.47;;;19.65;100.00
12991;BME280;6560;57.692;11.958;2023-03-22T11:42:55;99484.53;;;19.15;100.00
12991;BME280;6560;57.692;11.958;2023-03-22T11:45:32;99529.81;;;19.51;100.00
12991;BME280;6560;57.692;11.958;2023-03-22T11:48:11;99502.78;;;19.36;100.00
12991;BME280;6560;57.692;11.958;2023-03-22T11:50:43;99525.69;;;20.15;100.00
12991;BME280;6560;57.692;11.958;2023-03-22T11:53:18;99533.63;;;20.10;100.00
12991;BME280;6560;57.692;11.958;2023-03-22T11:55:47;99468.31;;;19.49;100.00
12991;BME280;6560;57.692;11.958;2023-03-22T11:58:26;99493.81;;;18.90;100.00
12991;BME280;6560;57.692;11.958;2023-03-22T12:00:54;99508.28;;;18.62;100.00
12991;BME280;6560;57.692;11.958;2023-03-22T12:03:28;99512.50;;;19.77;100.00
12991;BME280;6560;57.692;11.958;2023-03-22T12:05:55;99515.19;;;20.27;100.00
12991;BME280;6560;57.692;11.958;2023-03-22T12:08:46;99512.91;;;19.99;100.00
12991;BME280;6560;57.692;11.958;2023-03-22T12:11:17;99505.81;;;19.12;100.00
12991;BME280;6560;57.692;11.958;2023-03-22T12:14:21;99512.09;;;19.56;100.00
12991;BME280;6560;57.692;11.958;2023-03-22T12:16:46;99504.44;;;19.76;100.00
12991;BME280;6560;57.692;11.958;2023-03-22T12:21:51;99484.22;;;17.89;100.00
12991;BME280;6560;57.692;11.958;2023-03-22T12:24:29;99468.53;;;18.01;100.00
12991;BME280;6560;57.692;11.958;2023-03-22T12:27:06;99501.41;;;19.56;100.00
12991;BME280;6560;57.692;11.958;2023-03-22T12:29:40;99459.47;;;19.08;100.00
12991;BME280;6560;57.692;11.958;2023-03-22T12:32:18;99512.84;;;19.07;100.00
12991;BME280;6560;57.692;11.958;2023-03-22T12:34:48;99505.25;;;18.11;100.00
12991;BME280;6560;57.692;11.958;2023-03-22T12:37:26;99462.47;;;18.44;100.00
12991;BME280;6560;57.692;11.958;2023-03-22T12:42:29;99485.16;;;18.27;100.00
12991;BME280;6560;57.692;11.958;2023-03-22T12:45:01;99427.28;;;18.23;100.00
12991;BME280;6560;57.692;11.958;2023-03-22T12:47:39;99466.75;;;18.38;100.00
12991;BME280;6560;57.692;11.958;2023-03-22T12:50:12;99466.00;;;18.43;100.00
12991;BME280;6560;57.692;11.958;2023-03-22T12:52:48;99450.13;;;18.49;100.00
12991;BME280;6560;57.692;11.958;2023-03-22T12:55:21;99437.41;;;18.38;100.00
12991;BME280;6560;57.692;11.958;2023-03-22T12:57:48;99451.47;;;18.32;100.00
12991;BME280;6560;57.692;11.958;2023-03-22T13:03:26;99440.06;;;18.38;100.00
12991;BME280;6560;57.692;11.958;2023-03-22T13:06:05;99429.72;;;18.14;100.00
12991;BME280;6560;57.692;11.958;2023-03-22T13:17:36;99412.66;;;18.46;100.00
12991;BME280;6560;57.692;11.958;2023-03-22T13:30:32;99384.84;;;18.74;100.00
12991;BME280;6560;57.692;11.958;2023-03-22T13:33:06;99366.81;;;19.54;100.00
12991;BME280;6560;57.692;11.958;2023-03-22T13:38:07;99373.34;;;18.78;100.00
12991;BME280;6560;57.692;11.958;2023-03-22T13:40:41;99382.50;;;18.49;100.00
12991;BME280;6560;57.692;11.958;2023-03-22T13:43:20;99371.66;;;19.30;100.00
12991;BME280;6560;57.692;11.958;2023-03-22T13:54:15;99333.97;;;19.13;100.00
12991;BME280;6560;57.692;11.958;2023-03-22T13:56:58;99333.00;;;19.58;100.00
12991;BME280;6560;57.692;11.958;2023-03-22T14:04:44;99337.81;;;18.40;100.00
12991;BME280;6560;57.692;11.958;2023-03-22T14:07:31;99329.47;;;18.64;100.00
12991;BME280;6560;57.692;11.958;2023-03-22T14:10:10;99323.97;;;18.58;100.00
12991;BME280;6560;57.692;11.958;2023-03-22T14:12:56;99299.50;;;20.43;100.00
12991;BME280;6560;57.692;11.958;2023-03-22T14:15:52;99247.97;;;17.58;100.00
12991;BME280;6560;57.692;11.958;2023-03-22T14:18:26;99292.88;;;18.60;100.00
12991;BME280;6560;57.692;11.958;2023-03-22T14:21:15;99317.25;;;18.35;100.00
12991;BME280;6560;57.692;11.958;2023-03-22T14:23:44;99250.41;;;19.23;100.00
12991;BME280;6560;57.692;11.958;2023-03-22T14:26:21;99289.66;;;18.34;100.00
12991;BME280;6560;57.692;11.958;2023-03-22T14:28:48;99303.78;;;19.68;100.00
12991;BME280;6560;57.692;11.958;2023-03-22T14:31:34;99301.97;;;18.68;100.00
12991;BME280;6560;57.692;11.958;2023-03-22T14:34:06;99277.91;;;18.24;100.00
12991;BME280;6560;57.692;11.958;2023-03-22T14:36:36;99273.97;;;18.49;100.00
12991;BME280;6560;57.692;11.958;2023-03-22T14:39:32;99285.31;;;18.39;100.00